Flight Track Log - Related Links

Times and Time Zones

All times are in EDT time to prevent confusion due to time zone crossing. See the AAL1870 flight status page for this flight to view local times or setup timezone preferences in your user account.

Time Position Orientation Groundspeed Altitude Reporting Facility
EDT Latitude Longitude Course Direction KTS MPH feet Rate Location/Type
Tue 08:42:22 PM 33.9167 -118.5167 55° Northeast 272 313 4,600  Level Southern California TRACON
Tue 08:43:00 PM 34.1497 -118.0340 59° Northeast  Level FlightAware Approximate
Tue 08:43:06 PM 33.9008 -118.5819 254° West 275 316 7,500  Level Los Angeles Center
Tue 08:44:00 PM 34.2217 -117.8899 59° Northeast  Level FlightAware Approximate
Tue 08:44:08 PM 33.8361 -118.6225 207° Southwest 290 334 8,000  Level Los Angeles Center
Tue 08:45:00 PM 34.3044 -117.7649 54° Northeast  Level FlightAware Approximate
Tue 08:45:10 PM 33.8014 -118.5556 122° Southeast 279 321 8,600  Level Los Angeles Center
Tue 08:46:00 PM 34.3800 -117.6234 59° Northeast  Level FlightAware Approximate
Tue 08:46:12 PM 33.8711 -118.4808 42° Northeast 309 356 12,100  Level Los Angeles Center
Tue 08:47:00 PM 34.4559 -117.4938 55° Northeast  Level FlightAware Approximate
Tue 08:47:14 PM 33.9394 -118.4222 35° Northeast 337 388 14,200  Level Los Angeles Center
Tue 08:48:16 PM 33.9983 -118.3203 55° Northeast 365 420 17,200 2,274 Climbing Los Angeles Center
Tue 08:49:18 PM 34.0750 -118.1836 56° Northeast 410 472 18,900 1,887 Climbing Los Angeles Center
Tue 08:50:20 PM 34.1464 -118.0553 56° Northeast 454 522 21,100 2,177 Climbing Los Angeles Center
Tue 08:51:22 PM 34.2206 -117.9258 55° Northeast 465 535 23,400 1,935 Climbing Los Angeles Center
Tue 08:52:24 PM 34.2942 -117.7936 56° Northeast 472 543 25,100 1,548 Climbing Los Angeles Center
Tue 08:53:26 PM 34.3706 -117.6564 56° Northeast 487 560 26,600 1,694 Climbing Los Angeles Center
Tue 08:54:28 PM 34.4511 -117.5100 56° Northeast 494 568 28,600 1,839 Climbing Los Angeles Center
Tue 08:55:30 PM 34.5392 -117.3819 50° Northeast 499 574 30,400 1,694 Climbing Los Angeles Center
Tue 08:56:32 PM 34.6281 -117.2564 49° Northeast 495 570 32,100 2,000 Climbing Los Angeles Center
Tue 08:57:33 PM 34.7333 -117.1086 49° Northeast 488 562 34,500 1,951 Climbing Los Angeles Center
Tue 08:58:35 PM 34.8183 -116.9889 49° Northeast 475 547 36,100 1,147 Climbing Los Angeles Center
Tue 08:59:49 PM 34.9031 -116.8675 50° Northeast 473 544 37,100 882 Climbing Los Angeles Center
Tue 09:00:51 PM 35.0081 -116.7211 49° Northeast 480 552 38,100 871 Climbing Los Angeles Center
Tue 09:01:53 PM 35.0964 -116.5928 50° Northeast 490 564 38,900 435 Climbing Los Angeles Center
Tue 09:02:55 PM 35.1844 -116.4664 50° Northeast 490 564 39,000 49 Climbing Los Angeles Center
Tue 09:03:56 PM 35.2903 -116.3161 49° Northeast 487 560 39,000  Level Los Angeles Center
Tue 09:05:10 PM 35.3933 -116.1642 50° Northeast 483 556 39,000  Level Los Angeles Center
Tue 09:06:12 PM 35.4803 -116.0383 50° Northeast 485 558 39,000  Level Los Angeles Center
Tue 09:07:14 PM 35.5667 -115.9136 50° Northeast 481 554 39,000  Level Los Angeles Center
Tue 09:08:16 PM 35.6686 -115.7661 50° Northeast 486 559 39,000  Level Los Angeles Center
Tue 09:09:17 PM 35.7542 -115.6397 50° Northeast 483 556 39,000  Level Los Angeles Center
Tue 09:10:19 PM 35.8403 -115.5147 50° Northeast 482 555 39,000  Level Los Angeles Center
Tue 09:11:21 PM 35.9261 -115.3867 50° Northeast 486 559 39,000  Level Los Angeles Center
Tue 09:12:22 PM 36.0114 -115.2603 50° Northeast 484 557 39,000  Level Los Angeles Center
Tue 09:13:24 PM 36.0856 -115.1203 57° Northeast 496 571 39,000  Level Los Angeles Center
Tue 09:14:26 PM 36.1222 -114.9150 77° East 511 588 39,000  Level Los Angeles Center
Tue 09:15:28 PM 36.1517 -114.7422 78° East 514 592 39,000  Level Los Angeles Center
Tue 09:16:29 PM 36.1814 -114.5700 78° East 514 592 39,000  Level Los Angeles Center
Tue 09:17:31 PM 36.2119 -114.3978 78° East 515 593 39,000  Level Los Angeles Center
Tue 09:18:45 PM 36.2406 -114.2258 78° East 513 590 39,000  Level Los Angeles Center
Tue 09:19:47 PM 36.2758 -114.0186 78° East 514 592 39,000  Level Los Angeles Center
Tue 09:20:48 PM 36.3050 -113.8447 78° East 516 594 39,000  Level Los Angeles Center
Tue 09:21:50 PM 36.3394 -113.6336 78° East 520 598 39,000  Level Los Angeles Center
Tue 09:22:52 PM 36.3678 -113.4567 79° East 523 602 39,000  Level Los Angeles Center
Tue 09:23:53 PM 36.3972 -113.2786 78° East 527 606 39,000  Level Los Angeles Center
Tue 09:24:55 PM 36.4256 -113.0994 79° East 528 608 39,000  Level Los Angeles Center
Tue 09:25:57 PM 36.4533 -112.9233 79° East 525 604 39,000  Level Los Angeles Center
Tue 09:26:58 PM 36.4825 -112.7456 78° East 526 605 39,000  Level Los Angeles Center
Tue 09:28:00 PM 36.5100 -112.5689 79° East 524 603 39,000  Level Los Angeles Center
Tue 09:29:02 PM 36.5428 -112.3550 79° East 527 606 39,000  Level Los Angeles Center
Tue 09:30:03 PM 36.5636 -112.2142 80° East 523 602 39,000  Level Los Angeles Center
Tue 09:31:05 PM 36.5956 -112.0028 79° East 521 600 39,000  Level Los Angeles Center
Tue 09:31:49 PM 36.6172 -111.8631 79° East 521 600 39,000  Level Denver Center
Tue 09:32:51 PM 36.6428 -111.6858 80° East 523 602 39,000  Level Denver Center
Tue 09:33:53 PM 36.6683 -111.5086 80° East 523 602 39,000  Level Denver Center
Tue 09:34:54 PM 36.6939 -111.3289 80° East 528 608 39,000  Level Denver Center
Tue 09:35:56 PM 36.7189 -111.1503 80° East 527 606 39,000  Level Denver Center
Tue 09:36:58 PM 36.7458 -110.9675 80° East 534 615 39,000  Level Denver Center
Tue 09:37:59 PM 36.7736 -110.7528 81° East 527 606 39,000  Level Denver Center
Tue 09:39:01 PM 36.8003 -110.5728 79° East 530 610 39,000  Level Denver Center
Tue 09:40:03 PM 36.8242 -110.3939 80° East 526 605 39,000  Level Denver Center
Tue 09:41:04 PM 36.8489 -110.2117 80° East 534 615 39,000  Level Denver Center
Tue 09:42:06 PM 36.8728 -110.0250 81° East 529 609 39,000  Level Denver Center
Tue 09:43:08 PM 36.8956 -109.8506 81° East 530 610 39,000  Level Denver Center
Tue 09:44:09 PM 36.9228 -109.6461 80° East 532 612 39,000  Level Denver Center
Tue 09:45:11 PM 36.9456 -109.4703 81° East 533 613 39,000  Level Denver Center
Tue 09:46:12 PM 36.9700 -109.2644 81° East 535 616 39,000  Level Denver Center
Tue 09:47:14 PM 36.9925 -109.0892 81° East 533 613 39,000  Level Denver Center
Tue 09:48:16 PM 37.0136 -108.9133 81° East 533 613 39,000  Level Denver Center
Tue 09:49:17 PM 37.0381 -108.7081 81° East 533 613 39,000  Level Denver Center
Tue 09:50:19 PM 37.0586 -108.5364 81° East 526 605 39,000  Level Denver Center
Tue 09:51:21 PM 37.0825 -108.3383 81° East 515 593 39,000  Level Denver Center
Tue 09:52:22 PM 37.1019 -108.1681 82° East 515 593 39,000  Level Denver Center
Tue 09:53:24 PM 37.1244 -107.9689 82° East 518 596 39,000  Level Denver Center
Tue 09:54:26 PM 37.1439 -107.7975 82° East 518 596 39,000  Level Denver Center
Tue 09:55:27 PM 37.1636 -107.6261 82° East 520 598 39,000  Level Denver Center
Tue 09:56:29 PM 37.1858 -107.4214 82° East 529 609 39,000  Level Denver Center
Tue 09:57:31 PM 37.2047 -107.2475 82° East 527 606 39,000  Level Denver Center
Tue 09:58:32 PM 37.2256 -107.0436 83° East 527 606 39,000  Level Denver Center
Tue 09:59:34 PM 37.2447 -106.8692 82° East 527 606 39,000  Level Denver Center
Tue 10:00:36 PM 37.2625 -106.6925 83° East 530 610 39,000  Level Denver Center
Tue 10:01:37 PM 37.2844 -106.4853 82° East 536 617 39,000  Level Denver Center
Tue 10:02:39 PM 37.3022 -106.3064 83° East 538 619 39,000  Level Denver Center
Tue 10:03:41 PM 37.3222 -106.0950 83° East 545 627 39,000  Level Denver Center
Tue 10:04:42 PM 37.3394 -105.9142 83° East 543 625 39,000  Level Denver Center
Tue 10:05:44 PM 37.3758 -105.7058 78° East 547 629 39,000  Level Denver Center
Tue 10:06:45 PM 37.4281 -105.5367 69° East 543 625 39,000  Level Denver Center
Tue 10:07:47 PM 37.4781 -105.3631 70° East 549 632 39,000  Level Denver Center
Tue 10:08:49 PM 37.5347 -105.1608 70° East 539 620 39,000  Level Denver Center
Tue 10:09:50 PM 37.5831 -104.9917 70° East 537 618 39,000  Level Denver Center
Tue 10:10:52 PM 37.6292 -104.8225 71° East 533 613 39,000  Level Denver Center
Tue 10:11:53 PM 37.6833 -104.6253 71° East 532 612 39,000  Level Denver Center
Tue 10:12:55 PM 37.7297 -104.4536 71° East 536 617 39,000  Level Denver Center
Tue 10:13:57 PM 37.7842 -104.2539 71° East 534 615 39,000  Level Denver Center
Tue 10:14:58 PM 37.8314 -104.0819 71° East 535 616 39,000  Level Denver Center
Tue 10:16:00 PM 37.8775 -103.9092 71° East 534 615 39,000  Level Denver Center
Tue 10:17:01 PM 37.9317 -103.7097 71° East 533 613 39,000  Level Denver Center
Tue 10:18:03 PM 37.9769 -103.5372 72° East 535 616 39,000  Level Denver Center
Tue 10:19:04 PM 38.0217 -103.3644 72° East 535 616 39,000  Level Denver Center
Tue 10:20:06 PM 38.0747 -103.1642 71° East 535 616 39,000  Level Denver Center
Tue 10:21:07 PM 38.1181 -102.9936 72° East 537 618 39,000  Level Denver Center
Tue 10:22:09 PM 38.1692 -102.7942 72° East 533 613 39,000  Level Denver Center
Tue 10:23:10 PM 38.2103 -102.6178 73° East 544 626 39,000  Level Denver Center
Tue 10:24:12 PM 38.2433 -102.4078 79° East 542 624 39,000  Level Denver Center
Tue 10:25:13 PM 38.2725 -102.2278 78° East 543 625 39,000  Level Denver Center
Tue 10:26:15 PM 38.3025 -102.0450 78° East 550 633 39,000  Level Denver Center
Tue 10:27:16 PM 38.3358 -101.8311 79° East 550 633 39,000  Level Denver Center
Tue 10:28:17 PM 38.3658 -101.6447 78° East 558 642 39,000  Level Denver Center
Tue 10:29:19 PM 38.3956 -101.4583 78° East 560 644 39,000  Level Denver Center
Tue 10:30:20 PM 38.4294 -101.2400 79° East 561 646 39,000  Level Denver Center
Tue 10:31:22 PM 38.4575 -101.0519 79° East 562 647 39,000  Level Denver Center
Tue 10:32:23 PM 38.4914 -100.8272 79° East 569 655 39,000  Level Denver Center
Tue 10:33:25 PM 38.5194 -100.6356 79° East 572 658 39,000  Level Denver Center
Tue 10:34:26 PM 38.5483 -100.4447 79° East 571 657 39,000  Level Denver Center
Tue 10:35:27 PM 38.5800 -100.2217 80° East 570 656 39,000  Level Denver Center
Tue 10:36:29 PM 38.6081 -100.0308 79° East 570 656 39,000  Level Denver Center
Tue 10:37:30 PM 38.6400 -99.8078 80° East 569 655 39,000  Level Denver Center
Tue 10:38:32 PM 38.6658 -99.6161 80° East 571 657 39,000  Level Denver Center
Tue 10:39:33 PM 38.6922 -99.4219 80° East 576 663 39,000  Level Denver Center
Tue 10:39:56 PM 38.7019 -99.3414 81° East 575 662 39,000  Level Kansas City Center
Tue 10:40:55 PM 38.7306 -99.1406 80° East 574 661 39,000  Level Kansas City Center
Tue 10:41:56 PM 38.7581 -98.9397 80° East 572 658 39,000  Level Kansas City Center
Tue 10:42:57 PM 38.7836 -98.7389 81° East 570 656 39,000  Level Kansas City Center
Tue 10:43:59 PM 38.8106 -98.5394 80° East 569 655 39,000  Level Kansas City Center
Tue 10:45:01 PM 38.8361 -98.3394 81° East 568 654 39,000  Level Kansas City Center
Tue 10:46:02 PM 38.8608 -98.1403 81° East 565 650 39,000  Level Kansas City Center
Tue 10:47:02 PM 38.8861 -97.9414 81° East 563 648 39,000  Level Kansas City Center
Tue 10:48:01 PM 38.9147 -97.7142 81° East 564 649 39,000  Level Kansas City Center
Tue 10:49:04 PM 38.9508 -97.5264 76° East 568 654 39,000  Level Kansas City Center
Tue 10:50:05 PM 39.0000 -97.3414 71° East 571 657 39,000  Level Kansas City Center
Tue 10:51:06 PM 39.0561 -97.1275 71° East 567 652 39,000  Level Kansas City Center
Tue 10:52:07 PM 39.1047 -96.9431 71° East 567 652 39,000  Level Kansas City Center
Tue 10:53:08 PM 39.1533 -96.7567 71° East 572 658 39,000  Level Kansas City Center
Tue 10:54:09 PM 39.2086 -96.5397 72° East 570 656 39,000  Level Kansas City Center
Tue 10:55:10 PM 39.2536 -96.3542 73° East 566 651 39,000  Level Kansas City Center
Tue 10:56:11 PM 39.3075 -96.1453 72° East 564 649 39,000  Level Kansas City Center
Tue 10:57:10 PM 39.3544 -95.9542 72° East 565 650 39,000  Level Kansas City Center
Tue 10:58:12 PM 39.4011 -95.7703 72° East 562 647 39,000  Level Kansas City Center
Tue 10:59:13 PM 39.4458 -95.5836 73° East 564 649 39,000  Level Kansas City Center
Tue 11:00:14 PM 39.4989 -95.3669 72° East 563 648 39,000  Level Kansas City Center
Tue 11:01:15 PM 39.5439 -95.1792 73° East 561 646 39,000  Level Kansas City Center
Tue 11:02:15 PM 39.5883 -94.9939 73° East 559 643 39,000  Level Kansas City Center
Tue 11:03:15 PM 39.6333 -94.8094 72° East 558 642 39,000  Level Kansas City Center
Tue 11:04:16 PM 39.6844 -94.5942 73° East 558 642 39,000  Level Kansas City Center
Tue 11:05:20 PM 39.7269 -94.4097 73° East 557 641 39,000  Level Kansas City Center
Tue 11:06:20 PM 39.7700 -94.2258 73° East 555 639 39,000  Level Kansas City Center
Tue 11:07:21 PM 39.8183 -94.0150 73° East 559 643 39,000  Level Kansas City Center
Tue 11:08:22 PM 39.8597 -93.8231 74° East 557 641 39,000  Level Kansas City Center
Tue 11:09:22 PM 39.9031 -93.6317 73° East 555 639 39,000  Level Kansas City Center
Tue 11:10:22 PM 39.9472 -93.4436 73° East 550 633 39,000  Level Kansas City Center
Tue 11:11:24 PM 39.9892 -93.2508 74° East 554 638 39,000  Level Kansas City Center
Tue 11:12:26 PM 40.0328 -93.0592 73° East 558 642 39,000  Level Kansas City Center
Tue 11:13:26 PM 40.0800 -92.8394 74° East 555 639 39,000  Level Kansas City Center
Tue 11:14:27 PM 40.1194 -92.6542 74° East 554 638 39,000  Level Kansas City Center
Tue 11:15:27 PM 40.1900 -92.4439 66° East 555 639 39,000  Level Kansas City Center
Tue 11:16:28 PM 40.2486 -92.2792 65° Northeast 558 642 39,000  Level Kansas City Center
Tue 11:17:28 PM 40.3136 -92.0969 65° Northeast 561 646 39,000  Level Kansas City Center
Tue 11:18:32 PM 40.3783 -91.9128 65° Northeast 561 646 39,000  Level Kansas City Center
Tue 11:19:32 PM 40.4436 -91.7289 65° Northeast 561 646 39,000  Level Kansas City Center
Tue 11:20:39 PM 40.5194 -91.5061 66° East 560 644 39,000  Level Chicago Center
Tue 11:21:40 PM 40.5822 -91.3200 66° East 561 646 39,000  Level Chicago Center
Tue 11:22:41 PM 40.6508 -91.1214 65° Northeast 561 646 39,000 -195 Level Chicago Center
Tue 11:23:43 PM 40.7142 -90.9353 66° East 557 641 38,600 -585 Descending Chicago Center
Tue 11:24:44 PM 40.7756 -90.7494 66° East 553 636 37,800 -984 Descending Chicago Center
Tue 11:25:45 PM 40.8394 -90.5633 66° East 555 639 36,600 -1,672 Descending Chicago Center
Tue 11:26:46 PM 40.9014 -90.3756 66° East 554 638 34,400 -2,459 Descending Chicago Center
Tue 11:27:47 PM 40.9756 -90.1536 66° East 559 643 31,600 -2,557 Descending Chicago Center
Tue 11:28:48 PM 41.0281 -89.9933 66° East 557 641 29,200 -2,656 Descending Chicago Center
Tue 11:29:49 PM 41.0889 -89.8067 67° East 548 631 26,200 -3,197 Descending Chicago Center
Tue 11:30:50 PM 41.1592 -89.5933 66° East 526 605 22,700 -3,049 Descending Chicago Center
Tue 11:31:51 PM 41.2250 -89.4283 62° Northeast 509 586 20,000 -2,585 Descending Chicago Center
Tue 11:32:53 PM 41.2883 -89.2725 62° Northeast 486 559 17,400 -2,341 Descending Chicago Center
Tue 11:33:54 PM 41.3403 -89.1375 63° Northeast 465 535 15,200 -1,967 Descending Chicago Center
Tue 11:34:55 PM 41.3969 -88.9967 62° Northeast 436 502 13,400 -1,820 Descending Chicago Center
Tue 11:35:56 PM 41.4597 -88.8389 62° Northeast 402 463 11,500 -1,180 Descending Chicago Center
Tue 11:36:57 PM 41.5097 -88.7139 62° Northeast 382 440 11,000 -197 Descending Chicago Center
Tue 11:37:58 PM 41.5578 -88.5922 62° Northeast 372 428 11,100  Climbing Chicago Center
Tue 11:38:59 PM 41.6072 -88.4700 62° Northeast 372 428 11,000 -49 Descending Chicago Center
Tue 11:40:00 PM 41.6403 -88.3392 71° East 371 427 11,000  Level Chicago Center
Tue 11:41:01 PM 41.6758 -88.2078 70° East 372 428 11,000 -443 Level Chicago Center
Tue 11:42:02 PM 41.7425 -88.1081 48° Northeast 361 415 10,100 -836 Descending Chicago Center
Tue 11:43:03 PM 41.8181 -88.0506 30° Northeast 316 364 9,300 -934 Descending Chicago Center
Tue 11:44:04 PM 41.8847 -87.9875 35° Northeast 298 343 8,200 -1,263 Descending Chicago Center
Tue 11:44:38 PM 41.8833 -87.9167 91° East 291 335 7,300 -766 Descending Chicago TRACON
Tue 11:45:38 PM 41.9000 -87.8167 77° East 270 311 7,000 -350 Descending Chicago TRACON
Tue 11:46:38 PM 41.9000 -87.7167 90° East 227 261 6,600 -714 Descending Chicago TRACON
Tue 11:47:44 PM 41.9167 -87.6667 66° East 210 242 5,500 -1,045 Descending Chicago TRACON
Tue 11:48:50 PM 41.9500 -87.7167 312° West 168 193 4,300 -1,091 Descending Chicago TRACON

Login

Don't have an account? Register now (free) for customized features, flight alerts, and more!